createdAt,value
2018-06-27T00:01:12.735Z,90.60
2018-06-27T00:03:41.812Z,90.50
2018-06-27T00:06:10.450Z,90.40
2018-06-27T00:08:39.156Z,90.10
2018-06-27T00:11:07.741Z,90.20
2018-06-27T00:13:36.461Z,90.70
2018-06-27T00:16:05.185Z,91.00
2018-06-27T00:18:33.893Z,91.10
2018-06-27T00:21:02.588Z,91.30
2018-06-27T00:23:31.271Z,91.10
2018-06-27T00:25:59.948Z,91.20
2018-06-27T00:28:28.611Z,91.20
2018-06-27T00:30:57.229Z,91.10
2018-06-27T00:33:25.936Z,90.90
2018-06-27T00:35:54.586Z,90.90
2018-06-27T00:38:23.268Z,90.60
2018-06-27T00:40:51.970Z,90.60
2018-06-27T00:43:20.646Z,90.50
2018-06-27T00:45:49.298Z,90.40
2018-06-27T00:48:17.978Z,90.50
2018-06-27T00:50:46.589Z,90.50
2018-06-27T00:53:15.250Z,90.50
2018-06-27T00:55:43.960Z,90.50
2018-06-27T00:58:12.657Z,90.80
2018-06-27T01:00:41.329Z,90.70
2018-06-27T01:03:10.065Z,90.60
2018-06-27T01:05:38.778Z,90.70
2018-06-27T01:08:07.457Z,90.80
2018-06-27T01:10:36.157Z,90.80
2018-06-27T01:13:04.833Z,91.10
2018-06-27T01:15:43.798Z,91.10
2018-06-27T01:18:12.461Z,91.00
2018-06-27T01:20:41.155Z,91.30
2018-06-27T01:23:09.781Z,91.30
2018-06-27T01:25:38.470Z,91.50
2018-06-27T01:28:07.091Z,91.60
2018-06-27T01:30:35.690Z,91.90
2018-06-27T01:33:04.302Z,91.80
2018-06-27T01:35:35.889Z,91.80
2018-06-27T01:38:04.500Z,91.70
2018-06-27T01:40:33.062Z,91.90
2018-06-27T01:43:01.655Z,92.00
2018-06-27T01:45:30.263Z,91.60
2018-06-27T01:47:58.884Z,91.60
2018-06-27T01:50:27.485Z,91.70
2018-06-27T01:52:56.193Z,92.00
2018-06-27T01:55:24.979Z,92.10
2018-06-27T01:57:53.617Z,92.00
2018-06-27T02:00:22.260Z,92.00
2018-06-27T02:02:50.857Z,92.00
2018-06-27T02:05:19.557Z,92.30
2018-06-27T02:07:48.569Z,92.70
2018-06-27T02:10:17.137Z,92.80
2018-06-27T02:12:45.837Z,92.70
2018-06-27T02:15:14.439Z,92.70
2018-06-27T02:17:43.054Z,92.80
2018-06-27T02:20:11.741Z,92.70
2018-06-27T02:22:40.401Z,92.60
2018-06-27T02:25:09.062Z,92.90
2018-06-27T02:27:37.765Z,93.10
2018-06-27T02:30:06.447Z,93.10
2018-06-27T02:32:35.144Z,93.00
2018-06-27T02:35:03.866Z,93.20
2018-06-27T02:37:32.514Z,93.40
2018-06-27T02:40:01.146Z,93.40
2018-06-27T02:42:29.759Z,93.40
2018-06-27T02:44:58.330Z,93.50
2018-06-27T02:47:27.020Z,93.40
2018-06-27T02:49:55.832Z,93.40
2018-06-27T02:52:24.266Z,93.30
2018-06-27T02:57:21.193Z,93.30
2018-06-27T02:59:49.887Z,93.20
2018-06-27T03:02:18.504Z,93.20
2018-06-27T03:04:47.422Z,93.00
2018-06-27T03:07:16.009Z,92.90
2018-06-27T03:09:44.640Z,92.80
2018-06-27T03:12:13.277Z,92.80
2018-06-27T03:14:41.833Z,92.90
2018-06-27T03:17:10.475Z,92.90
2018-06-27T03:19:39.195Z,93.10
2018-06-27T03:22:07.822Z,93.20
2018-06-27T03:24:36.506Z,93.10
2018-06-27T03:27:05.403Z,93.00
2018-06-27T03:29:33.991Z,93.00
2018-06-27T03:32:02.587Z,93.10
2018-06-27T03:34:31.203Z,93.10
2018-06-27T03:36:59.844Z,93.20
2018-06-27T03:39:28.459Z,93.20
2018-06-27T03:41:57.149Z,93.50
2018-06-27T03:46:54.041Z,94.00
2018-06-27T03:49:22.686Z,93.90
2018-06-27T03:51:51.302Z,93.80
2018-06-27T03:54:19.955Z,93.80
2018-06-27T03:56:48.602Z,93.50
2018-06-27T03:59:17.227Z,93.20
2018-06-27T04:01:45.769Z,93.10
2018-06-27T04:04:14.399Z,93.30
2018-06-27T04:06:42.989Z,93.50
2018-06-27T04:09:12.423Z,93.50
2018-06-27T04:11:42.022Z,93.10
2018-06-27T04:14:10.603Z,93.30
2018-06-27T04:16:39.265Z,93.60
2018-06-27T04:19:07.967Z,93.50
2018-06-27T04:21:36.578Z,93.50
2018-06-27T04:24:05.249Z,93.50
2018-06-27T04:26:33.806Z,93.50
2018-06-27T04:29:02.387Z,93.30
2018-06-27T04:31:30.984Z,93.30
2018-06-27T04:33:59.548Z,93.20
2018-06-27T04:36:28.065Z,93.40
2018-06-27T04:38:56.696Z,93.40
2018-06-27T04:41:25.340Z,93.30
2018-06-27T04:44:12.353Z,93.20
2018-06-27T04:46:40.909Z,93.10
2018-06-27T04:49:09.517Z,92.80
2018-06-27T04:51:38.319Z,92.80
2018-06-27T04:54:06.926Z,92.70
2018-06-27T04:56:35.597Z,92.70
2018-06-27T04:59:04.213Z,92.70
2018-06-27T05:01:32.871Z,92.60
2018-06-27T05:04:01.806Z,92.70
2018-06-27T05:06:30.425Z,92.50
2018-06-27T05:08:58.978Z,92.40
2018-06-27T05:11:27.638Z,92.30
2018-06-27T05:13:56.289Z,92.30
2018-06-27T05:16:24.914Z,92.20
2018-06-27T05:18:53.701Z,92.00
2018-06-27T05:21:22.324Z,91.90
2018-06-27T05:23:50.973Z,91.70
2018-06-27T05:26:19.881Z,91.60
2018-06-27T05:28:48.502Z,91.80
2018-06-27T05:31:17.141Z,91.80
2018-06-27T05:33:45.773Z,91.80
2018-06-27T05:36:14.555Z,91.60
2018-06-27T05:38:43.331Z,91.60
2018-06-27T05:41:12.010Z,91.30
2018-06-27T05:43:40.640Z,91.40
2018-06-27T05:46:09.226Z,91.20
2018-06-27T05:48:39.019Z,90.90
2018-06-27T05:51:08.037Z,90.70
2018-06-27T05:53:36.961Z,90.10
2018-06-27T05:56:05.961Z,90.10
2018-06-27T06:01:02.860Z,89.80
2018-06-27T06:03:31.881Z,89.30
2018-06-27T06:06:00.546Z,88.90
2018-06-27T06:08:29.169Z,89.50
2018-06-27T06:10:57.809Z,89.20
2018-06-27T06:13:26.473Z,89.20
2018-06-27T06:15:55.090Z,89.40
2018-06-27T06:18:23.736Z,88.70
2018-06-27T06:20:52.365Z,88.70
2018-06-27T06:23:20.979Z,89.20
2018-06-27T06:25:49.610Z,88.60
2018-06-27T06:28:18.297Z,88.50
2018-06-27T06:30:46.935Z,88.50
2018-06-27T06:35:43.745Z,87.00
2018-06-27T06:38:12.361Z,87.80
2018-06-27T06:40:41.006Z,87.30
2018-06-27T06:43:09.678Z,87.00
2018-06-27T06:45:38.330Z,85.90
2018-06-27T06:48:06.953Z,85.80
2018-06-27T06:50:35.597Z,85.60
2018-06-27T06:53:04.215Z,85.40
2018-06-27T06:55:32.941Z,84.80
2018-06-27T06:58:01.553Z,84.20
2018-06-27T07:00:30.168Z,85.80
2018-06-27T07:02:58.716Z,84.50
2018-06-27T07:05:27.347Z,82.60
2018-06-27T07:07:56.034Z,83.00
2018-06-27T07:10:24.709Z,80.80
2018-06-27T07:12:53.317Z,81.30
2018-06-27T07:15:21.970Z,80.50
2018-06-27T07:17:50.696Z,79.80
2018-06-27T07:20:19.309Z,78.40
2018-06-27T07:22:47.928Z,78.20
2018-06-27T07:25:16.585Z,77.70
2018-06-27T07:27:45.234Z,78.10
2018-06-27T07:30:13.849Z,78.30
2018-06-27T07:32:42.433Z,75.80
2018-06-27T07:35:11.054Z,75.00
2018-06-27T07:37:39.611Z,75.30
2018-06-27T07:40:08.513Z,75.30
2018-06-27T07:42:37.209Z,75.50
2018-06-27T07:45:05.809Z,73.90
2018-06-27T07:47:34.373Z,75.50
2018-06-27T07:50:03.052Z,73.40
2018-06-27T07:52:31.689Z,72.80
2018-06-27T07:55:00.683Z,70.90
2018-06-27T07:57:29.298Z,70.10
2018-06-27T07:59:57.972Z,70.10
2018-06-27T08:02:26.550Z,71.20
2018-06-27T08:04:55.172Z,69.50
2018-06-27T08:07:24.122Z,70.50
2018-06-27T08:09:52.762Z,69.10
2018-06-27T08:12:21.563Z,69.80
2018-06-27T08:14:50.222Z,68.10
2018-06-27T08:17:18.863Z,66.30
2018-06-27T08:19:47.629Z,66.50
2018-06-27T08:22:16.258Z,64.40
2018-06-27T08:24:44.967Z,66.20
2018-06-27T08:27:13.622Z,66.30
2018-06-27T08:29:42.298Z,65.30
2018-06-27T08:32:10.857Z,65.60
2018-06-27T08:34:39.488Z,64.60
2018-06-27T08:37:08.174Z,62.80
2018-06-27T08:39:37.713Z,63.60
2018-06-27T08:42:06.437Z,62.80
2018-06-27T08:44:35.082Z,64.00
2018-06-27T08:47:03.729Z,62.30
2018-06-27T08:49:32.353Z,62.90
2018-06-27T08:52:00.986Z,61.90
2018-06-27T08:54:29.553Z,62.70
2018-06-27T08:56:58.238Z,61.00
2018-06-27T08:59:26.938Z,61.90
2018-06-27T09:01:55.569Z,62.30
2018-06-27T09:04:24.117Z,60.70
2018-06-27T09:06:52.741Z,62.70
2018-06-27T09:09:21.381Z,59.80
2018-06-27T09:11:49.964Z,59.60
2018-06-27T09:14:18.598Z,62.50
2018-06-27T09:16:47.201Z,61.70
2018-06-27T09:19:15.806Z,62.20
2018-06-27T09:21:44.477Z,61.20
2018-06-27T09:24:13.069Z,62.50
2018-06-27T09:26:41.628Z,61.20
2018-06-27T09:29:10.181Z,61.40
2018-06-27T09:31:39.387Z,61.50
2018-06-27T09:34:08.308Z,61.20
2018-06-27T09:36:36.911Z,62.30
2018-06-27T09:39:08.446Z,61.70
2018-06-27T09:41:37.301Z,61.60
2018-06-27T09:44:12.494Z,62.00
2018-06-27T09:46:41.787Z,60.10
2018-06-27T09:49:10.562Z,59.90
2018-06-27T09:51:39.134Z,58.70
2018-06-27T09:54:07.737Z,58.10
2018-06-27T09:56:36.738Z,56.90
2018-06-27T09:59:05.304Z,56.40
2018-06-27T10:01:33.867Z,58.20
2018-06-27T10:04:02.740Z,56.60
2018-06-27T10:06:31.394Z,58.40
2018-06-27T10:11:28.477Z,55.50
2018-06-27T10:13:57.084Z,57.70
2018-06-27T10:16:26.200Z,56.70
2018-06-27T10:18:54.863Z,59.70
2018-06-27T10:21:23.513Z,57.50
2018-06-27T10:23:52.098Z,56.30
2018-06-27T10:26:20.823Z,54.40
2018-06-27T10:28:49.438Z,56.50
2018-06-27T10:31:17.990Z,57.80
2018-06-27T10:33:46.531Z,56.10
2018-06-27T10:36:15.256Z,52.20
2018-06-27T10:38:43.897Z,53.40
2018-06-27T10:41:12.523Z,54.80
2018-06-27T10:43:41.197Z,54.50
2018-06-27T10:46:09.858Z,55.70
2018-06-27T10:48:38.558Z,54.30
2018-06-27T10:51:07.643Z,55.20
2018-06-27T10:53:36.374Z,59.90
2018-06-27T10:56:05.185Z,56.20
2018-06-27T10:58:33.829Z,55.00
2018-06-27T11:01:02.626Z,57.50
2018-06-27T11:03:31.183Z,54.30
2018-06-27T11:05:59.774Z,51.90
2018-06-27T11:08:28.365Z,51.30
2018-06-27T11:10:56.930Z,53.80
2018-06-27T11:13:25.595Z,53.10
2018-06-27T11:15:54.249Z,52.70
2018-06-27T11:18:22.946Z,54.60
2018-06-27T11:20:51.951Z,54.50
2018-06-27T11:23:20.945Z,55.10
2018-06-27T11:25:50.542Z,54.90
2018-06-27T11:28:19.165Z,56.70
2018-06-27T11:30:50.428Z,57.80
2018-06-27T11:33:18.972Z,57.70
2018-06-27T11:35:47.777Z,58.70
2018-06-27T11:38:16.803Z,60.80
2018-06-27T11:40:45.423Z,60.10
2018-06-27T11:43:14.175Z,59.80
2018-06-27T11:45:42.874Z,57.60
2018-06-27T11:48:11.838Z,54.60
2018-06-27T11:50:40.429Z,54.20
2018-06-27T11:53:09.018Z,56.10
2018-06-27T11:55:37.905Z,54.20
2018-06-27T11:58:07.342Z,52.50
2018-06-27T12:00:37.713Z,52.50
2018-06-27T12:03:06.884Z,53.80
2018-06-27T12:05:35.758Z,54.80
2018-06-27T12:08:05.427Z,55.10
2018-06-27T12:10:34.882Z,54.40
2018-06-27T12:13:03.938Z,56.10
2018-06-27T12:15:32.633Z,58.50
2018-06-27T12:18:01.278Z,57.70
2018-06-27T12:20:29.954Z,56.30
2018-06-27T12:22:58.655Z,54.60
2018-06-27T12:25:27.400Z,51.80
2018-06-27T12:27:56.478Z,53.40
2018-06-27T12:30:25.917Z,54.40
2018-06-27T12:32:54.975Z,53.10
2018-06-27T12:35:24.206Z,54.30
2018-06-27T12:37:54.678Z,53.70
2018-06-27T12:40:23.397Z,52.50
2018-06-27T12:42:52.113Z,49.70
2018-06-27T12:45:20.763Z,52.90
2018-06-27T12:47:49.469Z,50.70
2018-06-27T12:50:18.273Z,53.70
2018-06-27T12:52:47.040Z,52.00
2018-06-27T12:55:16.315Z,51.80
2018-06-27T12:57:44.937Z,50.50
2018-06-27T13:00:13.645Z,51.40
2018-06-27T13:02:42.253Z,51.30
2018-06-27T13:05:11.265Z,53.20
2018-06-27T13:07:39.786Z,53.00
2018-06-27T13:10:09.602Z,53.80
2018-06-27T13:12:39.093Z,53.70
2018-06-27T13:15:08.139Z,53.70
2018-06-27T13:17:36.811Z,55.20
2018-06-27T13:20:06.061Z,54.60
2018-06-27T13:22:34.889Z,53.00
2018-06-27T13:25:03.882Z,54.30
2018-06-27T13:27:32.815Z,51.50
2018-06-27T13:30:01.489Z,54.30
2018-06-27T13:32:30.119Z,53.20
2018-06-27T13:34:58.629Z,51.80
2018-06-27T13:37:27.024Z,53.00
2018-06-27T13:39:55.469Z,49.20
2018-06-27T13:42:23.869Z,48.60
2018-06-27T13:44:52.289Z,49.80
2018-06-27T13:47:20.710Z,50.70
2018-06-27T13:49:49.545Z,49.80
2018-06-27T13:52:18.162Z,48.50
2018-06-27T13:54:51.974Z,50.00
2018-06-27T13:57:20.554Z,50.00
2018-06-27T13:59:49.181Z,49.50
2018-06-27T14:02:17.789Z,46.50
2018-06-27T14:04:46.366Z,46.50
2018-06-27T14:07:14.941Z,46.00
2018-06-27T14:09:43.509Z,46.60
2018-06-27T14:12:12.126Z,45.30
2018-06-27T14:14:40.975Z,45.60
2018-06-27T14:17:09.614Z,47.20
2018-06-27T14:19:38.209Z,45.50
2018-06-27T14:22:07.277Z,46.10
2018-06-27T14:24:36.455Z,46.80
2018-06-27T14:27:05.138Z,47.30
2018-06-27T14:29:33.759Z,49.70
2018-06-27T14:32:02.463Z,49.30
2018-06-27T14:34:31.064Z,49.00
2018-06-27T14:36:59.702Z,49.70
2018-06-27T14:39:28.323Z,48.60
2018-06-27T14:41:56.942Z,48.60
2018-06-27T14:44:25.466Z,47.00
2018-06-27T14:46:54.030Z,46.20
2018-06-27T14:49:22.680Z,45.70
2018-06-27T14:51:51.265Z,45.70
2018-06-27T14:54:19.828Z,43.40
2018-06-27T14:56:48.427Z,43.40
2018-06-27T15:02:14.437Z,43.20
2018-06-27T15:04:43.122Z,41.10
2018-06-27T15:07:11.798Z,42.50
2018-06-27T15:09:40.442Z,43.80
2018-06-27T15:12:09.079Z,45.90
2018-06-27T15:14:37.725Z,47.20
2018-06-27T15:17:06.393Z,48.30
2018-06-27T15:19:35.021Z,45.50
2018-06-27T15:22:03.741Z,42.60
2018-06-27T15:24:32.404Z,41.60
2018-06-27T15:27:00.997Z,42.30
2018-06-27T15:29:29.641Z,43.40
2018-06-27T15:31:58.250Z,43.80
2018-06-27T15:34:26.855Z,43.10
2018-06-27T15:36:55.453Z,42.00
2018-06-27T15:39:24.054Z,42.30
2018-06-27T15:41:52.701Z,40.80
2018-06-27T15:44:21.299Z,41.60
2018-06-27T15:46:49.937Z,41.20
2018-06-27T15:49:18.621Z,41.30
2018-06-27T15:51:47.334Z,42.20
2018-06-27T15:54:15.997Z,43.20
2018-06-27T15:56:44.645Z,41.80
2018-06-27T15:59:13.276Z,41.30
2018-06-27T16:01:41.985Z,42.40
2018-06-27T16:04:10.656Z,42.00
2018-06-27T16:06:39.398Z,42.10
2018-06-27T16:09:09.145Z,41.60
2018-06-27T16:11:37.847Z,42.80
2018-06-27T16:14:06.548Z,43.00
2018-06-27T16:16:35.198Z,42.90
2018-06-27T16:19:03.946Z,42.50
2018-06-27T16:21:32.497Z,42.60
2018-06-27T16:24:01.115Z,42.50
2018-06-27T16:26:29.748Z,43.10
2018-06-27T16:28:59.839Z,42.80
2018-06-27T16:31:28.607Z,42.90
2018-06-27T16:33:58.171Z,43.50
2018-06-27T16:36:26.787Z,44.10
2018-06-27T16:38:55.823Z,43.80
2018-06-27T16:41:24.453Z,43.30
2018-06-27T16:43:53.162Z,43.40
2018-06-27T16:46:28.453Z,42.80
2018-06-27T16:48:57.013Z,43.80
2018-06-27T16:51:25.769Z,43.50
2018-06-27T16:54:02.488Z,43.30
2018-06-27T16:56:31.222Z,43.40
2018-06-27T16:59:00.174Z,43.10
2018-06-27T17:01:29.388Z,43.10
2018-06-27T17:03:57.738Z,43.40
2018-06-27T17:06:27.137Z,43.00
2018-06-27T17:08:55.857Z,42.80
2018-06-27T17:11:24.425Z,43.40
2018-06-27T17:13:57.813Z,44.40
2018-06-27T17:16:26.610Z,44.60
2018-06-27T17:18:55.383Z,45.60
2018-06-27T17:21:23.969Z,46.60
2018-06-27T17:23:53.001Z,46.00
2018-06-27T17:26:21.593Z,46.60
2018-06-27T17:28:50.521Z,46.90
2018-06-27T17:31:19.695Z,47.10
2018-06-27T17:33:48.626Z,46.70
2018-06-27T17:36:17.282Z,46.10
2018-06-27T17:38:46.534Z,46.80
2018-06-27T17:41:15.462Z,47.30
2018-06-27T17:43:44.369Z,47.70
2018-06-27T17:46:13.566Z,47.20
2018-06-27T17:48:42.403Z,46.60
2018-06-27T17:51:11.035Z,46.10
2018-06-27T17:53:39.887Z,46.50
2018-06-27T17:56:08.569Z,47.20
2018-06-27T17:58:37.214Z,46.70
2018-06-27T18:01:05.902Z,47.20
2018-06-27T18:03:34.629Z,46.50
2018-06-27T18:06:03.302Z,45.90
2018-06-27T18:08:31.921Z,46.50
2018-06-27T18:11:01.015Z,46.80
2018-06-27T18:13:30.090Z,46.60
2018-06-27T18:15:58.856Z,47.60
2018-06-27T18:18:27.697Z,47.60
2018-06-27T18:20:56.347Z,47.20
2018-06-27T18:23:25.031Z,47.90
2018-06-27T18:25:55.243Z,48.20
2018-06-27T18:28:24.240Z,49.00
2018-06-27T18:31:09.150Z,49.40
2018-06-27T18:33:37.795Z,50.40
2018-06-27T18:36:06.513Z,50.60
2018-06-27T18:38:35.163Z,50.50
2018-06-27T18:41:03.829Z,50.80
2018-06-27T18:43:32.457Z,51.40
2018-06-27T18:46:01.133Z,51.60
2018-06-27T18:48:29.819Z,52.70
2018-06-27T18:50:58.503Z,53.20
2018-06-27T18:53:27.137Z,53.90
2018-06-27T18:55:55.883Z,54.60
2018-06-27T18:58:24.550Z,55.10
2018-06-27T19:00:53.257Z,55.50
2018-06-27T19:03:21.907Z,56.00
2018-06-27T19:05:50.570Z,56.40
2018-06-27T19:08:19.173Z,56.60
2018-06-27T19:10:47.841Z,56.70
2018-06-27T19:13:16.470Z,56.90
2018-06-27T19:15:45.172Z,57.30
2018-06-27T19:18:13.813Z,57.90
2018-06-27T19:20:42.578Z,58.10
2018-06-27T19:23:11.138Z,58.70
2018-06-27T19:25:39.882Z,59.10
2018-06-27T19:28:08.582Z,59.60
2018-06-27T19:30:37.282Z,59.70
2018-06-27T19:33:05.890Z,60.10
2018-06-27T19:35:34.541Z,60.20
2018-06-27T19:38:03.186Z,60.50
2018-06-27T19:40:31.806Z,60.80
2018-06-27T19:43:00.471Z,61.00
2018-06-27T19:45:29.186Z,61.30
2018-06-27T19:47:57.733Z,61.50
2018-06-27T19:50:26.433Z,62.10
2018-06-27T19:52:55.092Z,62.50
2018-06-27T19:55:23.817Z,62.90
2018-06-27T19:57:52.361Z,62.70
2018-06-27T20:00:21.077Z,62.90
2018-06-27T20:02:49.743Z,63.20
2018-06-27T20:05:18.503Z,63.20
2018-06-27T20:07:47.250Z,63.70
2018-06-27T20:10:17.934Z,64.00
2018-06-27T20:12:46.505Z,64.40
2018-06-27T20:15:15.226Z,64.60
2018-06-27T20:17:43.846Z,64.80
2018-06-27T20:20:12.506Z,64.80
2018-06-27T20:22:41.147Z,65.30
2018-06-27T20:25:09.770Z,65.50
2018-06-27T20:27:38.490Z,65.80
2018-06-27T20:30:08.364Z,66.00
2018-06-27T20:32:37.041Z,66.00
2018-06-27T20:35:05.877Z,66.50
2018-06-27T20:37:34.584Z,66.40
2018-06-27T20:40:03.375Z,66.50
2018-06-27T20:42:33.737Z,66.60
2018-06-27T20:45:03.264Z,66.60
2018-06-27T20:47:31.874Z,66.40
2018-06-27T20:50:00.569Z,66.70
2018-06-27T20:52:29.277Z,66.80
2018-06-27T20:54:57.929Z,67.00
2018-06-27T20:57:26.694Z,67.20
2018-06-27T20:59:55.328Z,67.10
2018-06-27T21:02:24.566Z,67.20
2018-06-27T21:04:54.278Z,67.10
2018-06-27T21:07:22.894Z,67.20
2018-06-27T21:09:51.497Z,67.70
2018-06-27T21:12:20.142Z,68.10
2018-06-27T21:14:48.848Z,68.40
2018-06-27T21:17:17.537Z,68.80
2018-06-27T21:19:46.190Z,68.20
2018-06-27T21:22:15.018Z,68.50
2018-06-27T21:24:43.715Z,68.50
2018-06-27T21:27:12.288Z,68.60
2018-06-27T21:29:41.009Z,68.60
2018-06-27T21:32:09.636Z,69.30
2018-06-27T21:34:38.333Z,69.60
2018-06-27T21:37:07.008Z,69.60
2018-06-27T21:39:35.623Z,69.60
2018-06-27T21:42:04.238Z,69.50
2018-06-27T21:44:32.873Z,69.50
2018-06-27T21:47:01.491Z,69.50
2018-06-27T21:49:30.146Z,69.50
2018-06-27T21:51:58.742Z,69.50
2018-06-27T21:54:27.394Z,69.50
2018-06-27T21:56:56.374Z,69.60
2018-06-27T21:59:25.042Z,69.90
2018-06-27T22:01:53.735Z,69.50
2018-06-27T22:04:22.433Z,69.50
2018-06-27T22:06:51.128Z,69.90
2018-06-27T22:09:19.801Z,69.60
2018-06-27T22:11:48.445Z,69.30
2018-06-27T22:14:17.039Z,69.40
2018-06-27T22:16:45.702Z,69.70
2018-06-27T22:19:14.326Z,69.90
2018-06-27T22:21:43.089Z,69.70
2018-06-27T22:24:11.685Z,69.50
2018-06-27T22:26:40.374Z,69.20
2018-06-27T22:29:09.113Z,69.50
2018-06-27T22:31:37.729Z,69.50
2018-06-27T22:34:06.301Z,69.30
2018-06-27T22:36:35.018Z,69.40
2018-06-27T22:39:03.901Z,69.60
2018-06-27T22:41:32.583Z,69.70
2018-06-27T22:44:01.169Z,69.90
2018-06-27T22:46:29.725Z,70.10
2018-06-27T22:48:58.345Z,70.30
2018-06-27T22:51:27.133Z,70.70
2018-06-27T22:53:55.783Z,71.00
2018-06-27T22:56:24.358Z,71.40
2018-06-27T22:58:53.108Z,72.40
2018-06-27T23:01:21.751Z,72.60
2018-06-27T23:03:50.439Z,73.00
2018-06-27T23:06:19.105Z,73.20
2018-06-27T23:08:47.758Z,73.20
2018-06-27T23:11:16.453Z,73.50
2018-06-27T23:13:45.086Z,74.20
2018-06-27T23:16:13.774Z,74.50
2018-06-27T23:18:42.420Z,74.10
2018-06-27T23:21:11.166Z,74.30
2018-06-27T23:23:39.794Z,74.10
2018-06-27T23:26:08.435Z,74.40
2018-06-27T23:28:37.057Z,74.90
2018-06-27T23:31:05.674Z,74.60
2018-06-27T23:33:34.315Z,75.30
2018-06-27T23:36:02.939Z,75.40
2018-06-27T23:38:31.534Z,75.50
2018-06-27T23:41:00.239Z,75.30
2018-06-27T23:43:28.885Z,75.60
2018-06-27T23:45:57.566Z,76.80
2018-06-27T23:48:26.169Z,76.60
2018-06-27T23:50:54.801Z,76.60
2018-06-27T23:53:23.394Z,77.00
2018-06-27T23:55:51.995Z,77.70
2018-06-27T23:58:20.774Z,78.60
